Time;durP1;ratioP1;P1;durP2;ratioP2;P2;SDS_P1;SDS_P2;PMS_P1;PMS_P2;Temp;Humidity;BMP_temperature;BMP_pressure;BME280_temperature;BME280_humidity;BME280_pressure;Samples;Min_cycle;Max_cycle;Signal;HPM_P1;HPM_P2
2021/03/14 00:02:25;;;;;;;2.40;0.95;;;4.70;93.30;;;;;;5012286;28;20042;-81
2021/03/14 00:04:50;;;;;;;1.27;0.57;;;4.60;93.40;;;;;;5035554;28;20025;-81
2021/03/14 00:07:16;;;;;;;6.63;1.83;;;4.60;93.40;;;;;;5017314;28;20026;-81
2021/03/14 00:09:41;;;;;;;5.05;1.20;;;4.60;93.40;;;;;;5041246;28;20381;-80
2021/03/14 00:12:07;;;;;;;8.82;1.00;;;4.60;93.50;;;;;;5034554;28;20443;-80
2021/03/14 00:14:33;;;;;;;4.45;1.58;;;4.60;93.40;;;;;;5040663;28;20561;-81
2021/03/14 00:16:59;;;;;;;5.63;1.00;;;4.50;93.40;;;;;;5017535;28;20048;-81
2021/03/14 00:19:24;;;;;;;3.70;1.02;;;4.40;93.50;;;;;;5024863;28;20033;-81
2021/03/14 00:21:50;;;;;;;1.27;0.68;;;4.50;93.60;;;;;;5052076;28;20043;-81
2021/03/14 00:24:15;;;;;;;3.80;0.50;;;4.40;93.60;;;;;;5007243;28;20021;-80
2021/03/14 00:26:42;;;;;;;4.03;1.30;;;4.50;93.60;;;;;;5052123;28;20036;-81
2021/03/14 00:29:07;;;;;;;3.60;1.05;;;4.50;93.50;;;;;;5020974;28;20033;-80
2021/03/14 00:31:33;;;;;;;3.20;1.38;;;4.40;93.50;;;;;;5020235;28;20393;-80
2021/03/14 00:34:01;;;;;;;3.08;0.70;;;4.40;93.50;;;;;;5025074;28;20084;-81
2021/03/14 00:36:26;;;;;;;0.93;0.65;;;4.40;93.60;;;;;;5010176;28;20548;-81
2021/03/14 00:38:52;;;;;;;1.50;0.55;;;4.40;93.60;;;;;;5017462;28;20131;-80
2021/03/14 00:41:18;;;;;;;1.80;0.68;;;4.30;93.80;;;;;;5028360;28;20188;-81
2021/03/14 00:43:43;;;;;;;2.88;1.00;;;4.30;93.70;;;;;;5058950;28;20039;-80
2021/03/14 00:46:09;;;;;;;2.20;1.25;;;4.30;93.90;;;;;;5019849;28;20036;-80
2021/03/14 00:48:38;;;;;;;1.63;1.13;;;4.30;93.70;;;;;;5015177;28;20033;-80
2021/03/14 00:51:03;;;;;;;1.80;0.57;;;4.30;93.90;;;;;;5025860;28;21284;-80
2021/03/14 00:53:29;;;;;;;1.85;1.00;;;4.20;93.90;;;;;;5012099;28;20029;-81
2021/03/14 00:55:54;;;;;;;3.50;1.05;;;4.30;93.90;;;;;;5020680;28;20052;-81
2021/03/14 00:58:20;;;;;;;2.30;1.20;;;4.30;94.00;;;;;;5028516;28;20032;-81
2021/03/14 01:00:46;;;;;;;5.07;1.52;;;4.30;93.90;;;;;;5020976;28;20067;-81
2021/03/14 01:03:11;;;;;;;2.72;0.70;;;4.30;93.90;;;;;;5010313;28;20030;-80
2021/03/14 01:05:37;;;;;;;4.80;1.80;;;4.30;94.00;;;;;;5027949;28;20605;-80
2021/03/14 01:08:02;;;;;;;3.33;1.40;;;4.20;94.00;;;;;;5048673;28;20544;-80
2021/03/14 01:10:28;;;;;;;5.55;1.02;;;4.20;94.30;;;;;;5030176;28;20481;-80
2021/03/14 01:12:54;;;;;;;3.88;1.20;;;4.20;94.20;;;;;;5019051;28;20056;-80
2021/03/14 01:15:19;;;;;;;0.82;0.65;;;4.20;94.00;;;;;;5052516;28;20028;-80
2021/03/14 01:17:45;;;;;;;4.38;1.55;;;4.30;94.00;;;;;;5009860;28;20045;-80
2021/03/14 01:20:13;;;;;;;2.40;1.20;;;4.20;94.10;;;;;;5006112;28;20079;-79
2021/03/14 01:22:38;;;;;;;3.90;1.45;;;4.30;94.00;;;;;;5033440;28;20033;-80
2021/03/14 01:25:05;;;;;;;5.30;1.55;;;4.20;93.90;;;;;;5025812;28;20036;-79
2021/03/14 01:27:31;;;;;;;3.72;0.90;;;4.20;94.00;;;;;;5027013;28;20500;-81
2021/03/14 01:29:57;;;;;;;4.82;0.95;;;4.20;94.10;;;;;;5010545;28;20037;-80
2021/03/14 01:32:22;;;;;;;2.42;1.35;;;4.20;94.10;;;;;;5059764;28;20053;-80
2021/03/14 01:34:48;;;;;;;5.25;1.23;;;4.30;94.00;;;;;;5032196;28;20554;-80
2021/03/14 01:37:17;;;;;;;9.18;1.13;;;4.30;94.10;;;;;;5037311;28;20392;-80
2021/03/14 01:39:44;;;;;;;4.00;1.02;;;4.20;94.00;;;;;;5024419;28;20170;-80
2021/03/14 01:42:10;;;;;;;8.35;1.55;;;4.20;94.00;;;;;;5014567;28;20033;-80
2021/03/14 01:44:36;;;;;;;6.25;2.08;;;4.30;94.00;;;;;;5029942;28;20047;-79
2021/03/14 01:47:03;;;;;;;4.53;2.50;;;4.20;94.00;;;;;;5024049;28;20102;-81
2021/03/14 01:49:28;;;;;;;1.88;0.98;;;4.30;94.10;;;;;;5025096;28;21034;-79
2021/03/14 01:51:54;;;;;;;7.93;1.52;;;4.30;94.10;;;;;;5036007;28;20032;-79
2021/03/14 01:54:20;;;;;;;6.70;2.22;;;4.30;94.00;;;;;;5033459;28;20025;-80
2021/03/14 01:56:47;;;;;;;4.00;1.52;;;4.20;94.00;;;;;;5053016;28;20032;-80
2021/03/14 01:59:12;;;;;;;5.30;1.67;;;4.30;94.10;;;;;;5025193;28;20029;-78
2021/03/14 02:01:39;;;;;;;5.10;1.85;;;4.30;94.10;;;;;;5039601;28;20371;-81
2021/03/14 02:04:10;;;;;;;5.60;1.90;;;4.20;94.10;;;;;;5020976;28;20166;-79
2021/03/14 02:06:35;;;;;;;4.55;1.23;;;4.30;94.00;;;;;;5024309;28;20039;-79
2021/03/14 02:09:01;;;;;;;8.07;2.55;;;4.30;94.00;;;;;;5011775;28;20033;-79
2021/03/14 02:11:28;;;;;;;5.75;1.85;;;4.30;94.00;;;;;;5034226;28;20556;-80
2021/03/14 02:13:54;;;;;;;7.30;1.55;;;4.30;94.10;;;;;;5012133;28;20037;-81
2021/03/14 02:16:23;;;;;;;5.18;1.92;;;4.40;94.00;;;;;;5035484;28;20026;-80
2021/03/14 02:18:58;;;;;;;1.70;1.60;;;4.40;94.10;;;;;;5019268;28;20032;-80
2021/03/14 02:21:23;;;;;;;4.57;1.75;;;4.40;94.00;;;;;;5050278;28;20564;-81
2021/03/14 02:24:03;;;;;;;7.28;2.08;;;4.40;94.10;;;;;;5033969;28;20102;-80
2021/03/14 02:26:44;;;;;;;1.65;0.85;;;4.40;94.20;;;;;;5050708;28;20033;-80
2021/03/14 02:29:15;;;;;;;8.02;2.55;;;4.40;94.20;;;;;;5052159;28;20516;-81
2021/03/14 02:31:41;;;;;;;3.20;1.55;;;4.40;94.20;;;;;;5039965;28;20127;-81
2021/03/14 02:34:08;;;;;;;6.13;2.80;;;4.40;94.20;;;;;;5027772;28;20121;-81
2021/03/14 02:36:36;;;;;;;2.50;1.05;;;4.50;94.10;;;;;;5032053;28;20032;-81
2021/03/14 02:39:05;;;;;;;9.15;2.72;;;4.50;94.20;;;;;;5028697;28;20368;-81
2021/03/14 02:41:31;;;;;;;1.38;0.73;;;4.40;94.20;;;;;;5032050;28;20519;-81
2021/03/14 02:43:56;;;;;;;8.32;1.73;;;4.50;94.20;;;;;;5026831;28;20029;-80
2021/03/14 02:46:22;;;;;;;4.55;1.23;;;4.50;94.30;;;;;;5022636;28;20079;-81
2021/03/14 02:48:47;;;;;;;5.55;2.40;;;4.50;94.30;;;;;;5032593;28;20044;-81
2021/03/14 02:51:13;;;;;;;2.42;1.00;;;4.50;94.30;;;;;;5031074;28;20462;-81
2021/03/14 02:53:39;;;;;;;5.07;1.85;;;4.50;94.30;;;;;;5045246;28;20032;-81
2021/03/14 02:56:05;;;;;;;3.33;2.03;;;4.50;94.30;;;;;;5039155;28;20090;-81
2021/03/14 02:58:30;;;;;;;3.70;0.88;;;4.40;94.40;;;;;;5038325;28;20162;-80
2021/03/14 03:00:56;;;;;;;3.05;1.70;;;4.60;94.40;;;;;;5047174;28;20037;-80
2021/03/14 03:03:22;;;;;;;4.40;2.67;;;4.50;94.20;;;;;;5045330;28;20034;-81
2021/03/14 03:05:48;;;;;;;4.88;1.75;;;4.50;94.30;;;;;;5045608;28;20277;-80
2021/03/14 03:08:14;;;;;;;1.88;1.38;;;4.50;94.20;;;;;;5024785;28;20036;-80
2021/03/14 03:10:42;;;;;;;5.28;1.70;;;4.50;94.30;;;;;;5041927;28;20052;-81
2021/03/14 03:13:07;;;;;;;3.10;1.25;;;4.50;94.50;;;;;;5039585;28;20572;-80
2021/03/14 03:15:33;;;;;;;4.43;1.92;;;4.50;94.50;;;;;;5039295;28;20020;-81
2021/03/14 03:17:59;;;;;;;5.82;1.85;;;4.50;94.30;;;;;;5028968;28;20526;-81
2021/03/14 03:20:26;;;;;;;9.13;2.20;;;4.50;94.30;;;;;;5015735;28;20055;-81
2021/03/14 03:22:51;;;;;;;3.17;1.45;;;4.50;94.40;;;;;;5031304;28;20403;-81
2021/03/14 03:25:17;;;;;;;3.05;1.65;;;4.50;94.30;;;;;;5035542;28;20040;-80
2021/03/14 03:27:42;;;;;;;6.82;1.85;;;4.50;94.30;;;;;;5043718;28;20496;-81
2021/03/14 03:30:10;;;;;;;8.85;2.47;;;4.40;94.50;;;;;;5040355;28;20037;-81
2021/03/14 03:32:36;;;;;;;7.63;2.53;;;4.40;94.40;;;;;;5043132;28;20388;-80
2021/03/14 03:35:03;;;;;;;9.45;1.90;;;4.40;94.40;;;;;;5039280;28;20029;-76
2021/03/14 03:37:28;;;;;;;7.07;2.22;;;4.50;94.30;;;;;;5042347;28;20381;-78
2021/03/14 03:39:54;;;;;;;5.65;1.88;;;4.50;94.30;;;;;;5042828;28;20036;-78
2021/03/14 03:42:25;;;;;;;5.88;2.30;;;4.50;94.60;;;;;;5029589;28;20032;-78
2021/03/14 03:44:50;;;;;;;5.32;2.33;;;4.50;94.40;;;;;;5038306;28;20033;-80
2021/03/14 03:47:16;;;;;;;7.53;2.40;;;4.50;94.20;;;;;;5021934;28;20026;-80
2021/03/14 03:49:46;;;;;;;4.45;1.65;;;4.50;94.30;;;;;;5043153;28;20387;-80
2021/03/14 03:52:13;;;;;;;7.28;2.35;;;4.50;94.40;;;;;;5023274;28;20049;-80
2021/03/14 03:54:38;;;;;;;4.95;1.60;;;4.40;94.30;;;;;;5029529;28;20059;-81
2021/03/14 03:57:04;;;;;;;8.98;2.58;;;4.40;94.40;;;;;;5014848;28;20060;-80
2021/03/14 03:59:31;;;;;;;3.97;1.67;;;4.40;94.30;;;;;;5030387;28;20037;-81
2021/03/14 04:01:56;;;;;;;4.53;1.67;;;4.50;94.30;;;;;;5039042;28;20055;-78
2021/03/14 04:04:22;;;;;;;9.70;2.17;;;4.50;94.30;;;;;;5027970;28;20437;-78
2021/03/14 04:06:51;;;;;;;9.25;2.35;;;4.40;94.30;;;;;;5018297;28;20493;-80
2021/03/14 04:09:17;;;;;;;14.30;2.67;;;4.40;94.30;;;;;;5042708;28;20040;-80
2021/03/14 04:11:42;;;;;;;4.15;1.75;;;4.40;94.40;;;;;;5040768;28;20044;-80
2021/03/14 04:14:08;;;;;;;3.55;1.48;;;4.40;94.30;;;;;;5026591;28;20025;-81
2021/03/14 04:16:34;;;;;;;2.50;1.63;;;4.40;94.20;;;;;;5026617;28;20039;-81
2021/03/14 04:18:59;;;;;;;8.40;2.05;;;4.40;94.20;;;;;;5057053;28;20447;-81
2021/03/14 04:21:25;;;;;;;3.03;1.27;;;4.40;94.30;;;;;;5028530;28;20081;-78
2021/03/14 04:23:51;;;;;;;12.70;1.98;;;4.40;94.20;;;;;;5040840;28;20040;-80
2021/03/14 04:26:20;;;;;;;10.15;2.00;;;4.50;94.20;;;;;;5022128;28;20075;-78
2021/03/14 04:28:45;;;;;;;4.18;1.50;;;4.40;94.20;;;;;;5040987;28;20089;-81
2021/03/14 04:31:11;;;;;;;4.88;1.70;;;4.40;94.20;;;;;;5039747;28;20032;-80
2021/03/14 04:33:37;;;;;;;6.53;1.60;;;4.40;94.30;;;;;;5046428;28;20120;-81
2021/03/14 04:36:03;;;;;;;6.75;2.55;;;4.40;94.20;;;;;;5031073;28;20532;-80
2021/03/14 04:38:28;;;;;;;2.58;0.98;;;4.40;94.10;;;;;;5025681;28;20640;-81
2021/03/14 04:40:55;;;;;;;2.47;1.25;;;4.40;94.10;;;;;;5042026;28;20444;-81
2021/03/14 04:43:21;;;;;;;4.68;1.55;;;4.40;94.20;;;;;;5026051;28;20056;-81
2021/03/14 04:45:47;;;;;;;10.57;1.85;;;4.40;94.20;;;;;;5026013;28;20072;-80
2021/03/14 04:48:16;;;;;;;2.20;1.42;;;4.40;94.10;;;;;;5039017;28;20119;-80
2021/03/14 04:50:42;;;;;;;1.10;0.75;;;4.40;94.10;;;;;;5056922;28;20048;-81
2021/03/14 04:53:07;;;;;;;7.93;2.00;;;4.40;94.10;;;;;;5041877;28;20110;-80
2021/03/14 04:55:33;;;;;;;1.38;0.70;;;4.40;94.20;;;;;;5024229;28;20032;-81
2021/03/14 04:57:59;;;;;;;5.95;1.83;;;4.40;94.20;;;;;;5059901;28;20037;-80
2021/03/14 05:00:25;;;;;;;2.67;0.88;;;4.30;94.10;;;;;;5030928;28;20361;-80
2021/03/14 05:02:52;;;;;;;10.65;1.15;;;4.40;94.10;;;;;;5020926;28;20053;-80
2021/03/14 05:05:18;;;;;;;3.10;1.38;;;4.40;94.20;;;;;;5026601;28;20033;-81
2021/03/14 05:07:45;;;;;;;6.25;2.28;;;4.30;94.20;;;;;;5043066;28;20034;-81
2021/03/14 05:10:14;;;;;;;5.07;1.55;;;4.30;94.20;;;;;;5028546;28;20056;-80
2021/03/14 05:12:41;;;;;;;4.38;1.17;;;4.30;94.10;;;;;;5034244;28;20238;-80
2021/03/14 05:15:08;;;;;;;3.97;1.85;;;4.30;94.20;;;;;;5022488;28;20028;-80
2021/03/14 05:17:34;;;;;;;4.30;1.90;;;4.30;94.20;;;;;;5022603;28;20119;-80
2021/03/14 05:20:01;;;;;;;;;;;4.30;94.20;;;;;;4325427;28;10000310;-80
2021/03/14 05:22:27;;;;;;;1.50;0.80;;;4.30;94.30;;;;;;5053998;28;19909;-80
2021/03/14 05:24:52;;;;;;;7.53;1.75;;;4.30;94.20;;;;;;5039968;28;20402;-80
2021/03/14 05:27:18;;;;;;;3.67;1.58;;;4.30;94.20;;;;;;5025689;28;20142;-80
2021/03/14 05:29:45;;;;;;;8.88;2.28;;;4.30;94.20;;;;;;5042516;28;20090;-78
2021/03/14 05:32:11;;;;;;;5.07;1.70;;;4.30;94.50;;;;;;5039141;28;20131;-78
2021/03/14 05:34:37;;;;;;;2.60;1.33;;;4.30;94.10;;;;;;5050955;28;20190;-80
2021/03/14 05:37:02;;;;;;;8.10;1.65;;;4.20;94.20;;;;;;5044132;28;20032;-81
2021/03/14 05:39:28;;;;;;;5.05;2.13;;;4.20;94.20;;;;;;5011389;28;20037;-80
2021/03/14 05:41:54;;;;;;;6.28;1.90;;;4.30;94.30;;;;;;5023734;28;20503;-80
2021/03/14 05:44:21;;;;;;;3.08;1.67;;;4.20;94.30;;;;;;4743407;28;10001012;-80
2021/03/14 05:46:46;;;;;;;1.55;0.82;;;4.20;94.30;;;;;;4683888;28;10000466;-80
2021/03/14 05:49:12;;;;;;;1.35;1.02;;;4.20;94.40;;;;;;5043780;28;20053;-80
2021/03/14 05:51:42;;;;;;;5.10;1.63;;;4.20;94.40;;;;;;4691621;28;9999862;-80
2021/03/14 05:54:10;;;;;;;7.50;2.70;;;4.20;94.40;;;;;;5009213;28;20469;-80
2021/03/14 05:56:35;;;;;;;3.90;1.33;;;4.10;94.40;;;;;;5023349;28;20056;-79
2021/03/14 05:59:01;;;;;;;3.17;1.63;;;4.20;94.40;;;;;;5022923;28;20033;-79
2021/03/14 06:01:28;;;;;;;2.60;1.90;;;4.20;94.30;;;;;;5025131;28;20024;-79
2021/03/14 06:03:55;;;;;;;3.38;0.88;;;4.20;94.40;;;;;;5036475;28;20044;-78
2021/03/14 06:06:21;;;;;;;2.63;1.38;;;4.20;94.30;;;;;;5021216;28;20033;-78
2021/03/14 06:08:46;;;;;;;6.80;1.35;;;4.20;94.30;;;;;;5020839;28;20036;-79
2021/03/14 06:11:12;;;;;;;4.13;1.42;;;4.20;94.20;;;;;;5023645;28;20119;-78
2021/03/14 06:13:38;;;;;;;10.45;2.22;;;4.20;94.30;;;;;;5057198;28;20024;-79
2021/03/14 06:16:09;;;;;;;3.35;1.35;;;4.30;94.30;;;;;;5031080;28;20063;-79
2021/03/14 06:18:35;;;;;;;6.30;1.48;;;4.30;94.20;;;;;;5053880;28;20032;-79
2021/03/14 06:21:01;;;;;;;4.47;1.40;;;4.30;94.30;;;;;;5045335;28;20033;-79
2021/03/14 06:23:27;;;;;;;4.70;2.10;;;4.30;94.20;;;;;;5018322;28;20049;-79
2021/03/14 06:25:54;;;;;;;4.88;1.30;;;4.30;94.10;;;;;;5063480;28;20543;-79
2021/03/14 06:28:34;;;;;;;5.35;1.70;;;4.30;94.10;;;;;;5044013;28;20033;-79
2021/03/14 06:31:18;;;;;;;14.60;2.75;;;4.40;94.20;;;;;;5006758;28;20041;-80
2021/03/14 06:33:43;;;;;;;7.28;2.33;;;4.30;94.30;;;;;;5057888;28;20029;-80
2021/03/14 06:36:16;;;;;;;2.38;1.08;;;4.30;94.20;;;;;;5044940;28;20039;-80
2021/03/14 06:38:41;;;;;;;6.38;1.30;;;4.40;94.20;;;;;;5031853;28;20159;-80
2021/03/14 06:41:07;;;;;;;4.75;1.38;;;4.40;94.20;;;;;;5044537;28;20512;-80
2021/03/14 06:43:33;;;;;;;9.23;1.20;;;4.40;94.10;;;;;;5061573;28;20119;-80
2021/03/14 06:45:59;;;;;;;3.85;1.02;;;4.40;94.10;;;;;;5033921;28;20040;-80
2021/03/14 06:48:25;;;;;;;9.55;2.85;;;4.40;94.10;;;;;;5012344;28;20492;-80
2021/03/14 06:50:51;;;;;;;4.85;1.40;;;4.40;94.00;;;;;;5041154;28;20050;-80
2021/03/14 06:53:17;;;;;;;4.00;1.40;;;4.40;94.10;;;;;;5060271;28;20032;-80
2021/03/14 06:55:44;;;;;;;3.53;1.00;;;4.40;94.10;;;;;;5057745;28;20028;-79
2021/03/14 06:58:29;;;;;;;6.85;1.77;;;4.40;94.30;;;;;;5043706;28;20035;-80
2021/03/14 07:01:07;;;;;;;4.85;1.10;;;4.50;93.90;;;;;;5055828;28;20078;-79
2021/03/14 07:03:33;;;;;;;5.28;1.08;;;4.50;93.90;;;;;;5055899;28;20484;-79
2021/03/14 07:06:23;;;;;;;3.42;0.90;;;4.50;94.00;;;;;;5026147;28;20033;-80
2021/03/14 07:08:54;;;;;;;5.55;2.05;;;4.50;93.90;;;;;;5057423;28;20059;-80
2021/03/14 07:11:33;;;;;;;8.15;1.38;;;4.60;93.80;;;;;;5044250;28;20045;-79
2021/03/14 07:13:59;;;;;;;2.28;1.10;;;4.60;93.70;;;;;;5018688;28;20029;-79
2021/03/14 07:16:48;;;;;;;3.10;1.30;;;4.60;93.80;;;;;;5029182;28;20078;-80
2021/03/14 07:19:27;;;;;;;4.03;1.52;;;4.60;93.80;;;;;;5035115;28;20061;-80
2021/03/14 07:22:05;;;;;;;5.65;1.55;;;4.60;93.70;;;;;;5014297;28;20122;-80
2021/03/14 07:24:35;;;;;;;9.88;2.13;;;4.60;93.80;;;;;;5059220;28;20030;-79
2021/03/14 07:27:08;;;;;;;6.50;2.17;;;4.70;93.70;;;;;;5026456;28;20033;-80
2021/03/14 07:29:34;;;;;;;4.70;2.35;;;4.70;93.80;;;;;;5023312;28;20048;-80
2021/03/14 07:32:00;;;;;;;3.30;1.98;;;4.70;93.80;;;;;;5041988;28;20045;-80
2021/03/14 07:34:25;;;;;;;5.70;1.67;;;4.80;93.70;;;;;;5018853;28;20540;-80
2021/03/14 07:36:51;;;;;;;7.25;2.20;;;4.80;93.70;;;;;;5040723;28;20479;-80
2021/03/14 07:39:17;;;;;;;3.70;1.58;;;4.80;93.70;;;;;;5023431;28;20052;-80
2021/03/14 07:41:43;;;;;;;10.98;3.50;;;4.70;93.80;;;;;;5045383;28;20059;-81
2021/03/14 07:44:09;;;;;;;4.90;2.22;;;4.70;93.90;;;;;;5022990;28;20261;-84
2021/03/14 07:46:35;;;;;;;2.00;1.10;;;4.70;94.00;;;;;;5029907;28;20400;-82
2021/03/14 07:49:01;;;;;;;3.92;2.38;;;4.70;94.20;;;;;;5026878;28;20033;-82
2021/03/14 07:51:27;;;;;;;9.98;3.38;;;4.60;94.20;;;;;;5032951;28;20067;-82
2021/03/14 07:53:53;;;;;;;13.55;5.57;;;4.60;94.30;;;;;;5027910;28;20032;-82
2021/03/14 07:56:18;;;;;;;12.30;5.40;;;4.60;94.30;;;;;;5047069;28;20057;-80
2021/03/14 07:58:44;;;;;;;9.45;4.57;;;4.60;94.50;;;;;;5055035;28;20051;-80
2021/03/14 08:01:22;;;;;;;6.18;2.85;;;4.50;94.50;;;;;;5044169;28;20033;-80
2021/03/14 08:03:47;;;;;;;8.60;2.95;;;4.50;94.40;;;;;;5033347;28;20021;-81
2021/03/14 08:06:13;;;;;;;14.98;3.20;;;4.50;94.70;;;;;;5039174;28;20047;-81
2021/03/14 08:08:38;;;;;;;7.15;2.65;;;4.50;94.70;;;;;;5034783;28;20477;-81
2021/03/14 08:11:06;;;;;;;6.82;4.65;;;4.40;94.80;;;;;;5068466;28;20029;-80
2021/03/14 08:13:32;;;;;;;5.32;2.40;;;4.30;94.70;;;;;;5015651;28;20063;-81
2021/03/14 08:16:01;;;;;;;6.05;3.72;;;4.30;94.80;;;;;;5054180;28;20036;-80
2021/03/14 08:18:46;;;;;;;7.60;4.53;;;4.20;94.80;;;;;;5046845;28;20056;-80
2021/03/14 08:21:20;;;;;;;5.88;3.50;;;4.10;94.50;;;;;;5060236;28;20142;-80
2021/03/14 08:23:53;;;;;;;3.92;1.73;;;4.10;94.80;;;;;;5063915;28;20063;-80
2021/03/14 08:26:19;;;;;;;9.10;3.35;;;4.00;94.70;;;;;;5028321;28;20028;-80
2021/03/14 08:29:00;;;;;;;6.00;3.40;;;4.10;94.70;;;;;;5056940;28;20391;-80
2021/03/14 08:31:55;;;;;;;8.75;2.92;;;4.10;94.60;;;;;;5036689;28;20037;-80
2021/03/14 08:34:44;;;;;;;1.80;1.45;;;4.10;94.50;;;;;;5025676;28;20032;-79
2021/03/14 08:37:23;;;;;;;1.92;1.48;;;4.00;94.70;;;;;;5041785;28;20028;-80
2021/03/14 08:39:48;;;;;;;4.43;2.55;;;4.10;94.80;;;;;;5008265;28;20505;-80
2021/03/14 08:42:14;;;;;;;6.13;3.35;;;4.10;94.60;;;;;;5012941;28;20109;-80
2021/03/14 08:44:43;;;;;;;9.10;3.25;;;4.10;94.90;;;;;;5040865;28;20029;-80
2021/03/14 08:47:16;;;;;;;13.20;2.15;;;4.00;95.00;;;;;;5041417;28;20037;-80
2021/03/14 08:49:46;;;;;;;7.00;3.28;;;4.10;95.00;;;;;;5042190;28;20489;-80
2021/03/14 08:52:12;;;;;;;6.55;3.33;;;4.10;95.20;;;;;;5037172;28;20033;-79
2021/03/14 08:54:42;;;;;;;6.82;3.13;;;4.10;95.10;;;;;;5013422;28;20090;-80
2021/03/14 08:57:13;;;;;;;5.28;2.20;;;4.10;95.00;;;;;;5022957;28;20033;-80
2021/03/14 08:59:56;;;;;;;5.72;2.47;;;4.20;95.00;;;;;;5013920;28;20033;-80
2021/03/14 09:02:28;;;;;;;8.35;3.47;;;4.20;95.00;;;;;;5008959;28;20029;-79
2021/03/14 09:04:54;;;;;;;7.75;2.03;;;4.20;95.50;;;;;;5023651;28;20036;-80
2021/03/14 09:07:20;;;;;;;4.32;1.83;;;4.10;95.50;;;;;;5032116;28;20117;-81
2021/03/14 09:09:49;;;;;;;8.43;3.75;;;4.10;95.70;;;;;;5036395;28;20112;-82
2021/03/14 09:12:28;;;;;;;8.27;1.52;;;4.10;95.70;;;;;;5021380;28;20032;-81
2021/03/14 09:14:53;;;;;;;12.98;3.45;;;4.20;95.50;;;;;;5039583;28;20036;-81
2021/03/14 09:17:19;;;;;;;4.88;2.38;;;4.20;95.50;;;;;;5036243;28;20105;-80
2021/03/14 09:19:55;;;;;;;11.18;4.15;;;4.30;95.70;;;;;;5034149;28;20044;-80
2021/03/14 09:22:27;;;;;;;9.75;3.55;;;4.30;95.70;;;;;;5028586;28;20064;-80
2021/03/14 09:24:57;;;;;;;4.65;3.10;;;4.30;95.70;;;;;;5054495;28;20032;-80
2021/03/14 09:27:23;;;;;;;3.70;2.40;;;4.40;95.60;;;;;;5013551;28;20040;-82
2021/03/14 09:29:51;;;;;;;9.48;3.05;;;4.40;95.70;;;;;;5058562;28;20396;-82
2021/03/14 09:32:26;;;;;;;4.70;3.00;;;4.50;95.70;;;;;;5031821;28;20139;-80
2021/03/14 09:35:11;;;;;;;4.07;2.53;;;4.50;95.70;;;;;;5056244;28;20429;-80
2021/03/14 09:37:37;;;;;;;10.52;3.08;;;4.50;95.60;;;;;;5047053;28;20113;-82
2021/03/14 09:40:11;;;;;;;12.40;5.43;;;4.60;95.60;;;;;;5011339;28;20059;-80
2021/03/14 09:42:37;;;;;;;14.05;5.90;;;4.60;95.80;;;;;;5043807;28;20055;-80
2021/03/14 09:45:10;;;;;;;5.15;3.30;;;4.70;95.60;;;;;;5022392;28;20063;-81
2021/03/14 09:47:36;;;;;;;4.35;2.28;;;4.70;95.60;;;;;;5052040;28;20028;-80
2021/03/14 09:50:05;;;;;;;10.50;5.70;;;4.70;95.60;;;;;;5038397;28;20041;-80
2021/03/14 09:52:31;;;;;;;5.85;4.47;;;4.70;95.80;;;;;;5055989;28;20049;-80
2021/03/14 09:54:56;;;;;;;10.57;6.40;;;4.70;95.80;;;;;;5038736;28;20044;-80
2021/03/14 09:57:22;;;;;;;9.65;4.93;;;4.80;95.80;;;;;;5043208;28;20266;-80
2021/03/14 09:59:48;;;;;;;4.78;2.40;;;4.80;95.80;;;;;;5026575;28;20110;-79
2021/03/14 10:02:14;;;;;;;11.07;4.85;;;4.90;95.70;;;;;;5027280;28;20032;-79
2021/03/14 10:04:46;;;;;;;7.22;4.50;;;4.90;95.60;;;;;;5040700;28;20153;-79
2021/03/14 10:07:22;;;;;;;8.27;3.50;;;4.90;95.50;;;;;;5053435;28;20032;-77
2021/03/14 10:09:48;;;;;;;7.80;4.68;;;4.90;95.60;;;;;;5038079;28;20434;-79
2021/03/14 10:12:14;;;;;;;0.75;0.57;;;5.00;95.40;;;;;;5018955;28;20507;-79
2021/03/14 10:14:40;;;;;;;9.95;4.35;;;5.00;95.40;;;;;;5039157;28;20064;-79
2021/03/14 10:17:05;;;;;;;9.98;3.28;;;5.00;95.50;;;;;;5060636;28;20020;-79
2021/03/14 10:19:31;;;;;;;10.00;5.65;;;5.00;95.40;;;;;;5029478;28;20051;-79
2021/03/14 10:21:56;;;;;;;9.43;5.18;;;5.00;95.50;;;;;;5036824;28;20059;-79
2021/03/14 10:24:24;;;;;;;6.22;3.13;;;5.00;95.40;;;;;;5056686;28;20029;-78
2021/03/14 10:26:51;;;;;;;10.82;3.72;;;5.00;95.50;;;;;;5041669;28;20093;-78
2021/03/14 10:29:17;;;;;;;6.32;3.60;;;5.00;95.70;;;;;;5019980;28;20064;-78
2021/03/14 10:31:43;;;;;;;10.70;4.68;;;5.00;95.80;;;;;;5039750;28;20396;-80
2021/03/14 10:34:08;;;;;;;10.77;5.80;;;5.00;95.70;;;;;;5023487;28;20036;-80
2021/03/14 10:36:35;;;;;;;13.75;8.13;;;5.10;95.80;;;;;;5025562;28;20032;-80
2021/03/14 10:39:00;;;;;;;4.30;3.10;;;5.10;95.90;;;;;;5020753;28;20064;-80
2021/03/14 10:41:29;;;;;;;13.23;6.50;;;5.10;96.10;;;;;;5066469;28;20063;-80
2021/03/14 10:43:57;;;;;;;11.20;6.35;;;5.20;96.10;;;;;;5009093;28;20037;-80
2021/03/14 10:46:42;;;;;;;4.28;2.90;;;5.40;96.50;;;;;;5037593;28;20072;-80
2021/03/14 10:49:15;;;;;;;15.68;8.90;;;5.70;96.20;;;;;;5050040;28;20028;-80
2021/03/14 10:51:41;;;;;;;7.15;4.80;;;5.80;96.30;;;;;;5014958;28;20044;-81
2021/03/14 10:54:11;;;;;;;16.92;11.15;;;6.00;96.70;;;;;;5021664;28;20068;-81
2021/03/14 10:56:38;;;;;;;28.45;8.25;;;6.20;96.40;;;;;;5021855;28;20037;-81
2021/03/14 10:59:05;;;;;;;18.73;9.35;;;6.40;96.00;;;;;;5038133;28;20039;-81
2021/03/14 11:01:36;;;;;;;13.18;5.72;;;6.30;96.40;;;;;;5030669;28;20025;-80
2021/03/14 11:04:03;;;;;;;15.77;6.03;;;6.80;96.00;;;;;;5039537;28;20036;-80
2021/03/14 11:06:29;;;;;;;9.77;5.65;;;6.50;95.70;;;;;;5029761;28;20100;-79
2021/03/14 11:09:01;;;;;;;13.63;5.97;;;6.60;95.60;;;;;;5030500;28;20036;-82
2021/03/14 11:11:38;;;;;;;11.63;6.88;;;6.80;95.80;;;;;;5046757;28;20033;-80
2021/03/14 11:14:44;;;;;;;7.88;4.78;;;6.80;95.50;;;;;;5026970;28;20038;-81
2021/03/14 11:17:17;;;;;;;8.75;5.68;;;7.10;96.20;;;;;;5058015;28;20036;-80
2021/03/14 11:19:47;;;;;;;7.90;5.13;;;7.40;94.80;;;;;;5019362;28;20056;-80
2021/03/14 11:22:15;;;;;;;10.05;6.60;;;7.20;94.80;;;;;;5025003;28;20036;-80
2021/03/14 11:24:41;;;;;;;17.70;9.52;;;7.30;95.50;;;;;;5047580;28;20059;-80
2021/03/14 11:27:07;;;;;;;11.98;6.82;;;7.40;94.70;;;;;;5011338;28;20028;-80
2021/03/14 11:29:32;;;;;;;10.25;6.07;;;7.30;94.90;;;;;;5016693;28;20193;-79
2021/03/14 11:31:58;;;;;;;13.27;8.57;;;7.30;95.00;;;;;;5028718;28;20029;-80
2021/03/14 11:34:23;;;;;;;19.17;10.05;;;7.50;95.30;;;;;;5058949;28;20047;-80
2021/03/14 11:36:49;;;;;;;12.82;8.70;;;7.70;94.40;;;;;;5043087;28;20037;-78
2021/03/14 11:39:15;;;;;;;20.60;11.35;;;7.80;94.80;;;;;;5040244;28;20036;-79
2021/03/14 11:41:41;;;;;;;16.05;8.70;;;7.80;94.70;;;;;;5041253;28;20565;-79
2021/03/14 11:44:06;;;;;;;9.10;6.65;;;7.80;94.50;;;;;;5009533;28;20357;-79
2021/03/14 11:46:32;;;;;;;12.27;8.38;;;7.50;94.50;;;;;;5029093;28;20020;-81
2021/03/14 11:48:57;;;;;;;19.20;12.75;;;7.80;95.10;;;;;;5017580;28;20041;-80
2021/03/14 11:51:23;;;;;;;15.93;10.52;;;8.20;96.90;;;;;;5059668;28;20091;-79
2021/03/14 11:53:49;;;;;;;19.48;11.55;;;8.40;94.80;;;;;;5027703;28;20063;-79
2021/03/14 11:56:14;;;;;;;17.40;10.27;;;8.30;94.50;;;;;;5035116;28;20027;-79
2021/03/14 11:58:40;;;;;;;17.08;10.48;;;8.40;94.90;;;;;;5031719;28;20041;-79
2021/03/14 12:01:07;;;;;;;19.17;10.55;;;8.30;94.30;;;;;;5013892;28;20032;-79
2021/03/14 12:03:33;;;;;;;15.20;10.48;;;8.50;94.50;;;;;;5031697;28;20063;-79
2021/03/14 12:05:59;;;;;;;13.73;8.73;;;8.40;95.50;;;;;;5026189;28;20161;-78
2021/03/14 12:08:25;;;;;;;17.13;9.07;;;8.70;95.40;;;;;;5053436;28;20503;-79
2021/03/14 12:10:50;;;;;;;12.02;6.63;;;9.00;94.70;;;;;;5061099;28;20028;-79
2021/03/14 12:13:16;;;;;;;9.60;4.43;;;9.00;94.90;;;;;;5028035;28;21365;-78
2021/03/14 12:15:41;;;;;;;14.77;7.15;;;9.10;94.80;;;;;;5026570;28;20052;-78
2021/03/14 12:18:07;;;;;;;13.98;8.43;;;8.90;94.80;;;;;;5045914;28;20056;-79
2021/03/14 12:20:33;;;;;;;8.88;5.65;;;9.30;95.40;;;;;;5045759;28;20055;-79
2021/03/14 12:22:58;;;;;;;11.25;7.75;;;9.50;94.10;;;;;;5029017;28;20032;-79
2021/03/14 12:25:24;;;;;;;11.27;5.70;;;9.30;95.20;;;;;;5013961;28;20112;-80
2021/03/14 12:27:50;;;;;;;10.48;5.70;;;9.40;94.30;;;;;;5058730;28;20039;-79
2021/03/14 12:30:16;;;;;;;9.45;5.72;;;9.50;94.20;;;;;;4326172;28;10000266;-79
2021/03/14 12:32:41;;;;;;;11.60;7.00;;;9.70;96.00;;;;;;5041509;28;20036;-79
2021/03/14 12:35:07;;;;;;;9.57;6.85;;;10.10;94.40;;;;;;5007250;28;20047;-79
2021/03/14 12:37:33;;;;;;;12.30;7.97;;;10.00;93.90;;;;;;5022771;28;20056;-79
2021/03/14 12:39:59;;;;;;;6.43;3.63;;;10.10;93.30;;;;;;5042545;28;20052;-79
2021/03/14 12:42:24;;;;;;;8.68;5.90;;;10.30;93.10;;;;;;5010956;28;20080;-79
2021/03/14 12:44:50;;;;;;;11.85;6.68;;;10.60;92.60;;;;;;5022613;28;20045;-79
2021/03/14 12:47:16;;;;;;;11.25;5.03;;;10.60;93.00;;;;;;5042591;28;20130;-79
2021/03/14 12:49:41;;;;;;;10.80;7.90;;;10.50;92.40;;;;;;5009967;28;20503;-79
2021/03/14 12:52:07;;;;;;;10.65;7.20;;;10.70;93.30;;;;;;5022018;28;20409;-78
2021/03/14 12:54:32;;;;;;;7.57;5.78;;;10.60;91.70;;;;;;5027168;28;20359;-79
2021/03/14 12:56:58;;;;;;;7.35;5.28;;;10.70;91.30;;;;;;5035642;28;20029;-79